Terminal Aerodrome Forecast
Issued by NWS

Home | Current Version | Previous Version | Text Only | Print | Product List | Glossary On
Versions: 1 2 3 4 5 6 7 8 9 10 11 12 13 14 15 16 17 18 19 20
000
FTUS43 KICT 011140
TAFRSL
TAF
KRSL 011140Z 0112/0212 33028G35KT P6SM BKN015
     FM011700 33028G38KT P6SM BKN035
     FM020000 33015G22KT P6SM SCT035
     FM020500 34009KT P6SM SKC=

USA.gov is the U.S. government's official web portal to all federal, state and local government web resources and services.